Presque Isle, ME

5:37 AM EST on February 23, 2017 (GMT -0500)
Northern Maine Regional At Presque Isle

Weather History for KPQI - November, 2013

Change the Weather History Date:

Thursday, November 28, 2013

  Actual Average Record
Temperature  
Mean Temperature 25 °F -  
Max Temperature 35 °F 33 °F 58 °F (1950)
Min Temperature 15 °F 21 °F -7 °F (1997)
Degree Days  
Heating Degree Days 40    
Moisture  
Dew Point 16 °F    
Average Humidity 70    
Maximum Humidity 87    
Minimum Humidity 58    
Precipitation  
Precipitation 0.03 in - - ()
Sea Level Pressure  
Sea Level Pressure 29.67 in    
Wind  
Wind Speed 12 mph (West)    
Max Wind Speed 28 mph    
Max Gust Speed 36 mph    
Visibility 9 miles    
Events      
Averages and records for this station are not official NWS values.
T = Trace of Precipitation, MM = Missing Value Source: NWS Daily Summary

Daily Weather History Graph

Daily Weather History Graph

Search for Another Location

Airport or City:

Trip Planner

Search our weather history database for the weather conditions in past years. The results will help you decide how hot, cold, wet, or windy it might be!

Date:

Astronomy

Nov. 28, 2013 Rise Set
Actual Time 6:52 AM EST 3:47 PM EST
Civil Twilight 6:18 AM EST 4:21 PM EST
Nautical Twilight 5:40 AM EST 4:59 PM EST
Astronomical Twilight 5:04 AM EST 5:35 PM EST
Moon 1:35 AM EST (11/28) 1:09 PM EST (11/28)
Length of Visible Light 10h 03m
Length of Day
8h 54m
Waning Crescent, 22% of the Moon is Illuminated
Nov 28
Waning Crescent
Dec 2
New
Dec 9
First Quarter
Dec 17
Full
Dec 25
Last Quarter

Hourly Weather History & Observations

Time (EST) Temp. Windchill Dew Point Humidity Pressure Visibility Wind Dir Wind Speed Gust Speed Precip Events Conditions
12:15 AM 35.6 °F 27.1 °F 30.2 °F 81% 29.18 in 10.0 mi WNW 12.7 mph 17.3 mph 0.01 in   Overcast
12:35 AM 35.6 °F 28.6 °F 30.2 °F 81% 29.17 in 10.0 mi WNW 9.2 mph - 0.01 in   Overcast
12:55 AM 35.6 °F 30.7 °F 32.0 °F 87% 29.18 in 10.0 mi WNW 5.8 mph - 0.01 in   Overcast
1:15 AM 35.6 °F 30.7 °F 32.0 °F 87% 29.18 in 10.0 mi West 5.8 mph - N/A   Overcast
1:35 AM 35.6 °F 31.7 °F 32.0 °F 87% 29.19 in 10.0 mi West 4.6 mph - N/A   Overcast
1:55 AM 35.6 °F 31.7 °F 32.0 °F 87% 29.19 in 10.0 mi WSW 4.6 mph - N/A   Overcast
2:15 AM 35.6 °F - 32.0 °F 87% 29.19 in 10.0 mi Calm Calm - N/A   Overcast
2:35 AM 35.6 °F 30.7 °F 30.2 °F 81% 29.20 in 10.0 mi West 5.8 mph - N/A   Overcast
2:55 AM 35.6 °F 30.7 °F 30.2 °F 81% 29.23 in 10.0 mi WSW 5.8 mph - N/A   Overcast
3:15 AM 35.6 °F 29.9 °F 30.2 °F 81% 29.22 in 10.0 mi West 6.9 mph - N/A   Overcast
3:35 AM 33.8 °F 28.6 °F 30.2 °F 87% 29.24 in 10.0 mi West 5.8 mph - N/A   Overcast
3:55 AM 33.8 °F 28.6 °F 30.2 °F 87% 29.24 in 10.0 mi WSW 5.8 mph - N/A   Overcast
4:15 AM 33.8 °F 27.0 °F 28.4 °F 81% 29.26 in 8.0 mi West 8.1 mph - N/A   Overcast
4:35 AM 33.8 °F 27.7 °F 28.4 °F 81% 29.28 in 2.0 mi West 6.9 mph - 0.01 in   Overcast
4:55 AM 32.0 °F 22.5 °F 28.4 °F 87% 29.29 in 1.8 mi West 12.7 mph - 0.02 in   Overcast
5:15 AM 33.8 °F 24.8 °F 28.4 °F 81% 29.31 in 3.0 mi West 12.7 mph 18.4 mph N/A   Overcast
5:35 AM 32.0 °F 21.6 °F 28.4 °F 87% 29.32 in 5.0 mi West 15.0 mph 19.6 mph N/A   Overcast
5:55 AM 32.0 °F 22.1 °F 26.6 °F 80% 29.34 in 4.0 mi West 13.8 mph 23.0 mph N/A   Overcast
6:15 AM 30.2 °F 22.6 °F 26.6 °F 86% 29.35 in 7.0 mi West 8.1 mph - N/A   Overcast
6:35 AM 30.2 °F 21.9 °F 26.6 °F 86% 29.36 in 8.0 mi West 9.2 mph 17.3 mph N/A   Overcast
6:55 AM 30.2 °F 21.9 °F 26.6 °F 86% 29.37 in 7.0 mi West 9.2 mph 18.4 mph N/A   Mostly Cloudy
7:15 AM 30.2 °F 21.3 °F 26.6 °F 86% 29.39 in 5.0 mi WSW 10.4 mph - N/A   Overcast
7:35 AM 30.2 °F 20.2 °F 24.8 °F 80% 29.41 in 5.0 mi West 12.7 mph 19.6 mph N/A   Mostly Cloudy
7:55 AM 30.2 °F 19.8 °F 21.2 °F 69% 29.44 in 9.0 mi West 13.8 mph 24.2 mph N/A   Overcast
8:15 AM 28.4 °F 17.0 °F 19.4 °F 69% 29.46 in 10.0 mi West 15.0 mph 25.3 mph N/A   Overcast
8:35 AM 28.4 °F 16.6 °F 21.2 °F 74% 29.47 in 10.0 mi West 16.1 mph 23.0 mph N/A   Overcast
8:55 AM 28.4 °F 18.0 °F 19.4 °F 69% 29.49 in 10.0 mi West 12.7 mph 19.6 mph N/A   Overcast
9:15 AM 26.6 °F 16.8 °F 19.4 °F 74% 29.50 in 10.0 mi West 10.4 mph 26.5 mph N/A   Overcast
9:35 AM 26.6 °F 13.8 °F 17.6 °F 69% 29.52 in 10.0 mi West 17.3 mph 32.2 mph N/A   Overcast
9:55 AM 26.6 °F 14.3 °F 17.6 °F 69% 29.54 in 10.0 mi West 16.1 mph 21.9 mph N/A   Overcast
10:15 AM 24.8 °F 12.9 °F 17.6 °F 74% 29.56 in 10.0 mi WSW 13.8 mph 23.0 mph N/A   Overcast
10:35 AM 24.8 °F 10.7 °F 15.8 °F 69% 29.57 in 10.0 mi West 19.6 mph 27.6 mph N/A   Mostly Cloudy
10:55 AM 24.8 °F 11.1 °F 14.0 °F 64% 29.59 in 10.0 mi West 18.4 mph 31.1 mph N/A   Scattered Clouds
11:15 AM 24.8 °F 10.7 °F 15.8 °F 69% 29.61 in 10.0 mi West 19.6 mph 26.5 mph N/A   Mostly Cloudy
11:35 AM 24.8 °F 8.7 °F 14.0 °F 64% 29.63 in 10.0 mi West 26.5 mph 35.7 mph N/A   Scattered Clouds
11:55 AM 24.8 °F 9.3 °F 15.8 °F 69% 29.65 in 10.0 mi West 24.2 mph 28.8 mph N/A   Mostly Cloudy
12:15 PM 24.8 °F 9.6 °F 12.2 °F 59% 29.66 in 10.0 mi West 23.0 mph 33.4 mph N/A   Mostly Cloudy
12:35 PM 23.0 °F 9.2 °F 10.4 °F 59% 29.69 in 10.0 mi West 17.3 mph 28.8 mph N/A   Mostly Cloudy
12:55 PM 21.2 °F 4.5 °F 10.4 °F 63% 29.70 in 10.0 mi West 24.2 mph 33.4 mph N/A   Mostly Cloudy
1:15 PM 21.2 °F 6.4 °F 10.4 °F 63% 29.72 in 10.0 mi West 18.4 mph 28.8 mph N/A   Mostly Cloudy
1:35 PM 21.2 °F 6.4 °F 10.4 °F 63% 29.75 in 10.0 mi West 18.4 mph 28.8 mph N/A   Overcast
1:55 PM 21.2 °F 7.3 °F 8.6 °F 58% 29.77 in 10.0 mi West 16.1 mph 31.1 mph N/A   Overcast
2:15 PM 21.2 °F 7.8 °F 8.6 °F 58% 29.79 in 10.0 mi West 15.0 mph 29.9 mph N/A   Overcast
2:35 PM 19.4 °F 1.8 °F 6.8 °F 58% 29.81 in 10.0 mi WSW 25.3 mph 34.5 mph N/A   Overcast
2:55 PM 19.4 °F 2.1 °F 6.8 °F 58% 29.83 in 10.0 mi West 24.2 mph 34.5 mph N/A   Mostly Cloudy
3:15 PM 19.4 °F 4.1 °F 6.8 °F 58% 29.86 in 10.0 mi West 18.4 mph 33.4 mph N/A   Overcast
3:35 PM 19.4 °F 1.1 °F 6.8 °F 58% 29.88 in 10.0 mi West 27.6 mph 33.4 mph N/A   Overcast
3:55 PM 19.4 °F 2.8 °F 6.8 °F 58% 29.89 in 10.0 mi West 21.9 mph 32.2 mph N/A   Overcast
4:15 PM 19.4 °F 2.8 °F 6.8 °F 58% 29.91 in 10.0 mi West 21.9 mph 29.9 mph N/A   Overcast
4:35 PM 17.6 °F 1.7 °F 6.8 °F 63% 29.92 in 10.0 mi West 18.4 mph 31.1 mph N/A   Mostly Cloudy
4:55 PM 17.6 °F 1.7 °F 6.8 °F 63% 29.94 in 10.0 mi West 18.4 mph 31.1 mph N/A   Partly Cloudy
5:15 PM 17.6 °F 1.7 °F 6.8 °F 63% 29.95 in 10.0 mi West 18.4 mph 25.3 mph N/A   Partly Cloudy
5:35 PM 17.6 °F 2.2 °F 6.8 °F 63% 29.97 in 10.0 mi West 17.3 mph 25.3 mph N/A   Partly Cloudy
5:55 PM 17.6 °F 1.3 °F 6.8 °F 63% 29.99 in 10.0 mi West 19.6 mph 26.5 mph N/A   Partly Cloudy
6:15 PM 17.6 °F 2.7 °F 6.8 °F 63% 30.01 in 10.0 mi West 16.1 mph 27.6 mph N/A   Clear
6:35 PM 17.6 °F 4.3 °F 6.8 °F 63% 30.03 in 10.0 mi WSW 12.7 mph 26.5 mph N/A   Clear
6:55 PM 17.6 °F 3.7 °F 6.8 °F 63% 30.05 in 10.0 mi West 13.8 mph 20.7 mph N/A   Partly Cloudy
7:15 PM 17.6 °F 5.0 °F 5.0 °F 58% 30.07 in 10.0 mi West 11.5 mph 18.4 mph N/A   Mostly Cloudy
7:35 PM 17.6 °F 4.3 °F 5.0 °F 58% 30.08 in 10.0 mi West 12.7 mph 23.0 mph N/A   Scattered Clouds
7:55 PM 17.6 °F 6.4 °F 5.0 °F 58% 30.10 in 10.0 mi West 9.2 mph 17.3 mph N/A   Partly Cloudy
8:15 PM 17.6 °F 5.0 °F 5.0 °F 58% 30.11 in 10.0 mi WSW 11.5 mph 17.3 mph N/A   Clear
8:35 PM 17.6 °F 5.0 °F 5.0 °F 58% 30.12 in 10.0 mi West 11.5 mph 24.2 mph N/A   Clear
8:55 PM 15.8 °F 0.9 °F 3.2 °F 58% 30.12 in 10.0 mi West 15.0 mph 20.7 mph N/A   Clear
9:15 PM 15.8 °F 3.4 °F 5.0 °F 62% 30.13 in 10.0 mi West 10.4 mph 17.3 mph N/A   Clear
9:35 PM 15.8 °F 2.7 °F 5.0 °F 62% 30.13 in 10.0 mi West 11.5 mph 23.0 mph N/A   Clear
9:55 PM 15.8 °F 1.4 °F 5.0 °F 62% 30.14 in 10.0 mi West 13.8 mph 20.7 mph N/A   Clear
10:15 PM 15.8 °F 3.4 °F 5.0 °F 62% 30.15 in 10.0 mi West 10.4 mph - N/A   Clear
10:35 PM 15.8 °F 4.2 °F 5.0 °F 62% 30.17 in 10.0 mi West 9.2 mph 16.1 mph N/A   Clear
10:55 PM 15.8 °F 4.2 °F 5.0 °F 62% 30.17 in 10.0 mi West 9.2 mph - N/A   Clear
11:15 PM 15.8 °F 1.4 °F 5.0 °F 62% 30.18 in 10.0 mi West 13.8 mph - N/A   Clear
11:35 PM 15.8 °F 2.7 °F 5.0 °F 62% 30.18 in 10.0 mi West 11.5 mph - N/A   Clear
11:55 PM 15.8 °F 4.2 °F 5.0 °F 62% 30.19 in 10.0 mi WSW 9.2 mph - N/A   Clear